x

Stonewall Bank - 20nm West Of Newport, Or (46050) Wave Buoy

11:50pm - Tue 21st Feb 2017 All times are PST. -8 hours from GMT.

  • Sig Wave height 7.2ft
  • Swell Direction
  • Peak Period 15s
  • Average Period 7s
  • Wind
    16mph, 18mph gusts
  • Sea Temp 51°f
  • Air Temp 47°f
  • Sea Pressure 1022.3mb
  • Stonewall Bank - 20nm West Of Newport, Or
  • Stonewall Bank - 20nm West Of Newport, Or

More Historic Weather Station data

Upgrade to MSW Pro to gain access to the past 30 days of data for over 8000 Wavebouys and Weather Stations around the globe.

Join Pro

Comparision Forecast

View Surf forecast
   
Tue 02/21 11:50pm 7ft 15s 7s 16 18 mph 1022.3mb 51f 47f
10:50pm 7.5ft 16s 7s 11 13 mph 1022.2mb 51f 46f
9:50pm 7ft 11s 7s 18 20 mph 1022mb 51f 46f
8:50pm 7.5ft 7s 7s 11 18 mph 1021.7mb 51f 48f
7:50pm 8ft 11s 7s 13 16 mph 1021.2mb 51f 47f
6:50pm 7.5ft 11s 7s 13 16 mph 1021mb 51f 48f
5:50pm 7ft 9s 7s 11 13 mph 1020.4mb 51f 48f
4:50pm 7.5ft 11s 7s 13 16 mph 1019.8mb 51f 48f
3:50pm 7ft 11s 6s 16 18 mph 1019.1mb 51f 48f
2:50pm 8ft 8s 7s 16 20 mph 1018.1mb 51f 49f
1:50pm 7.5ft 11s 6s 18 20 mph 1017.4mb 51f 49f
12:50pm 7.5ft 11s 6s 18 22 mph 1016.5mb 51f 49f
11:50am 8ft 12s 6s 20 25 mph 1015.8mb 51f 49f
10:50am 8ft 11s 7s 18 25 mph 1014.6mb 51f 49f
9:50am 7ft 12s 6s 20 22 mph 1013mb 51f 47f
8:50am 6ft 13s 7s 20 22 mph 1011.5mb 51f 46f
7:50am 6ft 12s 7s 18 20 mph 1009.9mb 51f 46f
6:50am 7ft 12s 8s 11 13 mph 1008.4mb 51f 46f
5:50am 7ft 12s 7s 13 18 mph 1006.8mb 51f 46f
4:50am 7.5ft 10s 8s 13 18 mph 1005.4mb 51f 47f
3:50am 8ft 13s 8s 16 18 mph 1004.5mb 51f 47f
2:50am 8ft 13s 8s 7 11 mph 1004.2mb 51f 47f
1:50am 8ft 13s 8s 7 9 mph 1004mb 51f 49f
12:50am 9ft 9s 9s 4 7 mph 1003.8mb 51f 49f
Mon 02/20 11:50pm 9.5ft 9s 9s 4 7 mph 1003.7mb 51f 48f
10:50pm 9ft 13s 8s 7 9 mph 1003.4mb 51f 49f
9:50pm 8ft 13s 8s 4 9 mph 1003.3mb 51f 49f
8:50pm 10ft 11s 8s 2 4 mph 1004mb 51f 49f
7:50pm 10ft 11s 8s 2 7 mph 1004.3mb 51f 49f
6:50pm 10ft 11s 8s  -  2 mph 1004.3mb 51f 49f
5:50pm 10.5ft 11s 8s 4 11 mph 1004.8mb 51f 47f
4:50pm 9.5ft 14s 8s 9 13 mph 1004.8mb 51f 50f
3:50pm 10.5ft 14s 8s 13 16 mph 1004.8mb 51f 50f
2:50pm 12ft 14s 9s 16 20 mph 1004.9mb 51f 50f
1:50pm 12ft 14s 8s 13 18 mph 1004.6mb 51f 51f
12:50pm 11ft 14s 8s 25 29 mph 1004.2mb 51f 48f
11:50am 12ft 13s 9s 22 29 mph 1003.9mb 51f 49f
10:50am 10ft 14s 9s 20 27 mph 1003.1mb 51f 49f
9:50am 9.5ft 15s 10s 18 22 mph 1001.2mb 51f 48f
8:50am 10ft 12s 10s 11 13 mph 998.1mb 51f 45f
7:50am 11ft 15s 9s 7 9 mph 995.4mb 51f 43f
6:50am 11.5ft 14s 9s 7 11 mph 994.9mb 51f 44f
5:50am 12ft 16s 9s 16 20 mph 994.4mb 51f 44f
4:50am 13ft 12s 9s 13 20 mph 995.2mb 51f 45f
3:50am 13ft 13s 9s 16 20 mph 996.3mb 51f 45f
2:50am 14.5ft 13s 10s 18 22 mph 997.3mb 51f 46f
1:50am 12ft 16s 9s 9 13 mph 998.7mb 51f 47f
12:50am 12.5ft 15s 9s 11 13 mph 999.8mb 51f 47f
Sun 02/19 11:50pm 12ft 16s 8s 16 18 mph 1000.3mb 51f 46f
10:50pm 12.5ft 16s 9s 16 20 mph 1000.9mb 51f 50f
9:50pm 11.5ft 17s 8s 20 22 mph 1001mb 51f 51f
8:50pm 11ft 17s 8s 18 22 mph 1000.7mb 51f 51f
7:50pm 12.5ft 17s 8s 20 22 mph 1000.8mb 51f 50f
6:50pm 11.5ft 8s 7s 22 27 mph 1000.7mb 51f 51f
5:50pm 11ft 19s 7s 22 25 mph 1000.5mb 51f 50f
4:50pm 11ft 9s 7s 22 27 mph 1000.2mb 51f 51f
3:50pm 11ft 9s 7s 25 31 mph 999.6mb 51f 51f
2:50pm 12ft 8s 7s 25 31 mph 999.2mb 51f 51f
1:50pm 12ft 8s 7s 27 34 mph 998.4mb 51f 51f
12:50pm 11.5ft 8s 7s 27 34 mph 998.3mb 51f 46f
11:50am 12ft 8s 7s 29 36 mph 998mb 51f 48f
10:50am 12ft 8s 7s 29 38 mph 997.2mb 51f 51f
9:50am 12ft 8s 7s 27 36 mph 996.6mb 51f 49f
8:50am 11ft 9s 7s 22 31 mph 996.1mb 51f 49f
7:50am 11.5ft 9s 7s 29 36 mph 995.2mb 51f 50f
6:50am 11.5ft 9s 7s 27 31 mph 994.8mb 51f 50f
5:50am 12ft 9s 7s 27 34 mph 994.4mb 51f 50f
4:50am 11.5ft 9s 7s 29 36 mph 994.2mb 51f 47f
3:50am 11ft 8s 7s 25 31 mph 993.9mb 51f 50f
2:50am 10.5ft 8s 7s 22 27 mph 993.8mb 51f 50f
1:50am 12ft 8s 7s 25 29 mph 993.5mb 51f 49f
12:50am 11ft 8s 7s 29 36 mph 993.3mb 51f 46f
Sat 02/18 11:50pm 11ft 7s 6s 34 40 mph 993.3mb 51f 49f
10:50pm 8.5ft 11s 6s 34 40 mph 993.9mb 51f 48f
9:50pm 8ft 12s 6s 29 34 mph 994.9mb 51f 45f
8:50pm 7.5ft 11s 7s 22 29 mph 995.7mb 51f 45f
7:50pm 7.5ft 11s 7s 20 25 mph 996.2mb 51f 47f
6:50pm 7ft 11s 7s 13 20 mph 996.9mb 51f 46f
5:50pm 8ft 11s 7s 11 13 mph 997.4mb 51f 48f
4:50pm 8ft 11s 7s 13 16 mph 998.1mb 51f 48f
3:50pm 8ft 11s 7s 13 16 mph 998.3mb 51f 47f
2:50pm 8ft 11s 7s 11 16 mph 998.4mb 51f 47f
1:50pm 7.5ft 13s 7s 16 18 mph 998.6mb 51f 48f
12:50pm 8ft 13s 7s 16 20 mph 998.6mb 51f 49f
11:50am 8ft 12s 7s 16 20 mph 999mb 51f 48f
10:50am 8ft 11s 7s 18 20 mph 998.6mb 51f 48f
9:50am 8.5ft 8s 7s 18 20 mph 998.3mb 51f 48f
8:50am 9ft 8s 7s 18 22 mph 998mb 51f 49f